Time;durP1;ratioP1;P1;durP2;ratioP2;P2;SDS_P1;SDS_P2;PMS_P1;PMS_P2;Temp;Humidity;BMP_temperature;BMP_pressure;BME280_temperature;BME280_humidity;BME280_pressure;Samples;Min_cycle;Max_cycle;Signal;HPM_P1;HPM_P2
2022/09/15 03:52:49;;;;;;;15.05;4.85;;;;;;;12.25;67.87;99678.78;4399588;23;20026;-69
2022/09/15 03:55:20;;;;;;;22.02;6.15;;;;;;;12.26;68.15;99669.69;4963487;28;20113;-67
2022/09/15 03:57:47;;;;;;;15.32;5.45;;;;;;;12.28;67.75;99667.63;4987446;28;20063;-67
2022/09/15 04:00:13;;;;;;;19.30;5.20;;;;;;;12.23;67.64;99662.00;4972377;28;20494;-67
2022/09/15 04:02:40;;;;;;;19.38;6.07;;;;;;;12.25;67.79;99677.94;4982999;28;20398;-68
2022/09/15 04:05:07;;;;;;;12.05;4.30;;;;;;;12.24;67.71;99673.59;4992623;28;20402;-69
2022/09/15 04:07:33;;;;;;;21.42;5.13;;;;;;;12.22;67.78;99676.47;4994423;28;20469;-69
2022/09/15 04:10:00;;;;;;;14.60;4.47;;;;;;;12.23;67.64;99667.38;4992732;28;20042;-67
2022/09/15 04:12:28;;;;;;;14.20;4.82;;;;;;;12.15;67.94;99664.84;4992346;28;20046;-67
2022/09/15 04:14:55;;;;;;;17.17;4.78;;;;;;;12.16;68.04;99674.56;4992475;28;20081;-67
2022/09/15 04:17:21;;;;;;;16.83;4.63;;;;;;;12.08;68.25;99666.66;4992320;28;20061;-67
2022/09/15 04:19:48;;;;;;;13.63;5.47;;;;;;;12.10;68.18;99665.41;4992026;28;20129;-66
2022/09/15 04:22:14;;;;;;;14.02;5.30;;;;;;;12.21;68.12;99676.66;4992596;28;20046;-68
2022/09/15 04:24:43;;;;;;;15.98;5.57;;;;;;;12.14;68.24;99666.72;4992469;28;20498;-69
2022/09/15 04:27:10;;;;;;;27.70;11.60;;;;;;;12.10;68.17;99678.03;4991629;28;20057;-67
2022/09/15 04:29:36;;;;;;;17.98;7.10;;;;;;;12.06;68.54;99679.47;4991794;28;20049;-67
2022/09/15 04:32:03;;;;;;;14.23;5.55;;;;;;;12.03;68.61;99680.66;4993084;28;20059;-67
2022/09/15 04:34:29;;;;;;;13.77;5.13;;;;;;;11.96;68.54;99674.41;4991861;28;20042;-67
2022/09/15 04:36:56;;;;;;;16.85;5.85;;;;;;;11.93;68.98;99667.59;4991596;28;20062;-67
2022/09/15 04:39:23;;;;;;;21.48;6.38;;;;;;;11.91;68.89;99666.94;4991801;28;20066;-66
2022/09/15 04:41:49;;;;;;;20.85;5.57;;;;;;;11.93;68.50;99672.97;4992111;28;20050;-66
2022/09/15 04:44:16;;;;;;;18.13;6.47;;;;;;;11.98;68.56;99666.19;4992477;28;20046;-76
2022/09/15 04:46:42;;;;;;;22.25;5.90;;;;;;;11.81;69.13;99661.06;4992215;28;20046;-74
2022/09/15 04:49:09;;;;;;;21.55;5.70;;;;;;;11.98;68.36;99664.31;4991734;28;20061;-74
2022/09/15 04:51:35;;;;;;;14.77;5.97;;;;;;;11.95;68.51;99664.69;4992990;28;20533;-76
2022/09/15 04:54:01;;;;;;;21.60;6.85;;;;;;;11.85;68.71;99667.72;4991122;28;20050;-67
2022/09/15 04:56:28;;;;;;;20.02;6.18;;;;;;;11.90;68.57;99676.03;4990039;28;20069;-68
2022/09/15 04:58:57;;;;;;;15.32;6.53;;;;;;;11.86;68.68;99668.53;4991300;28;20050;-68
2022/09/15 05:01:32;;;;;;;21.27;7.22;;;;;;;11.87;68.53;99664.84;4990249;28;20053;-68
2022/09/15 05:04:02;;;;;;;20.05;6.53;;;;;;;11.85;68.67;99673.09;4991729;28;20120;-68
2022/09/15 05:06:30;;;;;;;20.20;6.28;;;;;;;11.89;68.31;99674.34;4973779;28;20133;-68
2022/09/15 05:08:57;;;;;;;18.55;6.28;;;;;;;11.84;68.78;99673.28;4991352;28;20050;-68
2022/09/15 05:11:25;;;;;;;17.23;5.60;;;;;;;11.92;68.56;99673.16;4991532;28;20065;-68
2022/09/15 05:13:52;;;;;;;22.85;6.22;;;;;;;11.89;68.34;99671.66;4987454;28;20409;-68
2022/09/15 05:16:24;;;;;;;20.90;6.57;;;;;;;11.71;69.13;99673.19;4991029;28;20058;-68
2022/09/15 05:18:53;;;;;;;22.98;7.20;;;;;;;11.75;69.06;99672.59;4991674;28;20046;-68
2022/09/15 05:21:20;;;;;;;19.73;6.75;;;;;;;11.80;68.82;99663.97;4991326;28;20486;-68
2022/09/15 05:23:49;;;;;;;15.88;6.15;;;;;;;11.86;68.77;99672.09;4991214;28;20433;-68
2022/09/15 05:26:22;;;;;;;21.20;7.18;;;;;;;11.94;68.37;99676.47;4990670;28;20054;-67
2022/09/15 05:28:49;;;;;;;20.65;6.50;;;;;;;12.07;68.13;99671.22;4990984;28;20498;-67
2022/09/15 05:31:33;;;;;;;17.98;7.35;;;;;;;11.95;68.05;99667.38;4991397;28;20050;-69
2022/09/15 05:34:03;;;;;;;20.20;6.82;;;;;;;11.98;68.37;99672.38;4991575;28;20046;-66
2022/09/15 05:36:30;;;;;;;19.20;6.50;;;;;;;11.92;68.47;99673.16;4991027;28;20516;-67
2022/09/15 05:38:57;;;;;;;21.80;7.50;;;;;;;11.89;68.30;99668.97;4972995;28;20046;-68
2022/09/15 05:41:25;;;;;;;40.70;7.47;;;;;;;12.04;68.07;99678.84;4993136;28;20136;-67
2022/09/15 05:43:55;;;;;;;17.75;7.53;;;;;;;12.02;68.09;99675.50;4994660;28;20057;-69
2022/09/15 05:46:24;;;;;;;45.88;8.18;;;;;;;12.01;68.15;99676.53;4995635;28;20540;-68
2022/09/15 05:48:55;;;;;;;23.30;6.15;;;;;;;12.09;67.85;99673.69;4995589;28;20047;-69
2022/09/15 05:51:22;;;;;;;18.35;6.88;;;;;;;12.08;67.80;99678.25;4995359;28;20046;-67
2022/09/15 05:53:49;;;;;;;17.90;5.80;;;;;;;12.18;67.20;99683.28;4994293;28;20077;-67
2022/09/15 05:56:16;;;;;;;22.52;6.65;;;;;;;12.21;67.45;99674.84;4995171;28;20043;-67
2022/09/15 05:58:46;;;;;;;21.35;6.03;;;;;;;12.28;67.36;99674.84;4994558;28;20082;-66
2022/09/15 06:01:21;;;;;;;24.50;6.45;;;;;;;12.37;66.88;99679.88;4994749;28;20050;-68
2022/09/15 06:03:48;;;;;;;17.00;5.97;;;;;;;12.43;66.81;99678.28;4993128;28;20046;-67
2022/09/15 06:06:15;;;;;;;17.20;5.50;;;;;;;12.51;66.41;99683.47;4994054;28;20113;-67
2022/09/15 06:08:45;;;;;;;32.67;7.05;;;;;;;12.48;66.63;99677.66;4994170;28;20555;-68
2022/09/15 06:11:15;;;;;;;;;;;;;;;12.61;66.43;99689.34;4995223;28;20054;-67
2022/09/15 06:13:43;;;;;;;17.10;5.32;;;;;;;12.75;65.57;99684.88;4994740;28;19940;-69
2022/09/15 06:16:15;;;;;;;18.13;5.43;;;;;;;12.84;65.36;99691.75;4995443;28;20488;-68
2022/09/15 06:18:41;;;;;;;13.88;4.30;;;;;;;12.75;65.32;99684.88;4994524;28;20490;-67
2022/09/15 06:21:19;;;;;;;14.88;4.20;;;;;;;13.24;64.07;99686.50;4993041;28;20057;-68
2022/09/15 06:23:50;;;;;;;21.85;4.70;;;;;;;13.38;63.50;99687.38;4994340;28;20042;-67
2022/09/15 06:26:18;;;;;;;16.15;4.05;;;;;;;13.42;62.87;99696.72;4994497;28;20046;-68
2022/09/15 06:28:50;;;;;;;20.15;4.00;;;;;;;13.63;61.99;99692.19;4994393;28;20046;-67
2022/09/15 06:31:17;;;;;;;22.80;4.00;;;;;;;13.72;62.24;99696.34;4994407;28;20508;-68
2022/09/15 06:33:46;;;;;;;11.60;3.85;;;;;;;13.85;61.41;99690.19;4995454;28;20540;-67
2022/09/15 06:36:14;;;;;;;13.77;3.80;;;;;;;13.67;61.53;99694.28;4994580;28;20050;-75
2022/09/15 06:38:42;;;;;;;15.45;4.95;;;;;;;13.71;61.66;99684.75;4995656;28;20043;-75
2022/09/15 06:41:09;;;;;;;37.25;8.60;;;;;;;13.68;61.49;99690.53;4994563;28;20050;-74
2022/09/15 06:43:36;;;;;;;16.52;3.58;;;;;;;13.67;61.67;99691.59;4994973;28;20042;-74
2022/09/15 06:46:07;;;;;;;9.60;3.08;;;;;;;13.78;61.13;99692.88;4994775;28;20490;-75
2022/09/15 06:48:36;;;;;;;9.88;3.13;;;;;;;13.77;60.95;99694.75;4994602;28;20046;-74
2022/09/15 06:51:03;;;;;;;17.90;3.65;;;;;;;14.02;60.46;99681.47;4994976;28;20047;-76
2022/09/15 06:53:32;;;;;;;15.73;3.88;;;;;;;14.06;59.65;99693.50;4993439;28;20053;-75
2022/09/15 06:56:08;;;;;;;6.03;3.00;;;;;;;13.99;60.39;99686.44;4993418;28;20395;-74
2022/09/15 06:58:36;;;;;;;14.15;3.30;;;;;;;14.41;58.79;99689.72;4994368;28;20056;-74
2022/09/15 07:01:07;;;;;;;12.35;2.92;;;;;;;14.38;58.68;99690.97;4994233;28;20043;-74
2022/09/15 07:03:34;;;;;;;;;;;;;;;14.52;58.44;99691.75;4994983;28;20402;-74
2022/09/15 07:06:02;;;;;;;12.25;3.42;;;;;;;14.79;57.77;99703.34;4994731;28;20405;-75
2022/09/15 07:08:29;;;;;;;16.38;3.92;;;;;;;14.80;57.47;99699.59;4993592;28;20493;-76
2022/09/15 07:10:56;;;;;;;10.25;2.90;;;;;;;14.62;57.79;99692.16;4994062;28;20046;-75
2022/09/15 07:13:23;;;;;;;12.85;3.15;;;;;;;14.62;57.72;99702.13;4993220;28;20043;-75
2022/09/15 07:15:54;;;;;;;11.85;3.08;;;;;;;14.43;58.42;99707.38;4994549;28;20046;-75
2022/09/15 07:18:22;;;;;;;10.05;3.40;;;;;;;14.32;58.52;99718.78;4993692;28;20138;-75
2022/09/15 07:20:50;;;;;;;9.60;3.13;;;;;;;15.15;56.59;99718.16;4993602;28;20076;-77
2022/09/15 07:23:17;;;;;;;9.65;3.05;;;;;;;15.52;55.45;99708.41;4993430;28;20069;-77
2022/09/15 07:25:44;;;;;;;12.30;3.40;;;;;;;15.34;55.65;99716.44;4993877;28;20053;-77
2022/09/15 07:28:11;;;;;;;13.48;2.80;;;;;;;15.69;54.50;99716.88;4987180;28;20076;-77
2022/09/15 07:30:38;;;;;;;11.77;3.20;;;;;;;15.64;54.59;99714.81;4992587;28;20073;-77
2022/09/15 07:33:05;;;;;;;24.15;3.88;;;;;;;15.71;54.37;99723.72;4993248;28;20054;-77
2022/09/15 07:35:32;;;;;;;11.52;3.03;;;;;;;15.69;54.28;99725.81;4993400;28;20446;-77
2022/09/15 07:37:59;;;;;;;9.70;2.88;;;;;;;16.03;53.57;99737.22;4992410;28;20057;-77
2022/09/15 07:40:27;;;;;;;15.85;3.28;;;;;;;15.84;53.98;99728.19;4992870;28;20046;-77
2022/09/15 07:42:54;;;;;;;8.38;3.00;;;;;;;15.40;54.99;99729.91;4992981;28;20471;-77
2022/09/15 07:45:22;;;;;;;14.13;3.13;;;;;;;15.12;55.71;99738.34;4992784;28;20046;-77
2022/09/15 07:47:48;;;;;;;17.90;2.92;;;;;;;15.21;55.55;99734.34;4992133;28;20470;-77
2022/09/15 07:50:15;;;;;;;19.45;3.90;;;;;;;15.25;55.55;99734.75;4992890;28;20053;-75
2022/09/15 07:52:41;;;;;;;12.85;3.17;;;;;;;15.05;55.99;99742.97;4993507;28;20493;-77
2022/09/15 07:55:08;;;;;;;16.95;3.92;;;;;;;15.12;55.67;99737.50;4973629;28;20054;-76
2022/09/15 07:57:35;;;;;;;12.13;3.25;;;;;;;14.92;56.15;99741.13;4986089;28;20043;-75
2022/09/15 08:00:03;;;;;;;22.63;3.13;;;;;;;15.52;54.84;99746.25;4993158;28;20054;-70
2022/09/15 08:02:29;;;;;;;11.23;3.42;;;;;;;15.41;54.86;99746.94;4962609;28;20051;-67
2022/09/15 08:04:56;;;;;;;18.17;4.07;;;;;;;15.63;54.69;99742.88;4951727;28;20509;-67
2022/09/15 08:07:23;;;;;;;14.60;2.65;;;;;;;15.74;54.18;99754.06;4954097;28;20053;-67
2022/09/15 08:09:50;;;;;;;8.55;2.35;;;;;;;16.31;52.29;99755.72;4953331;28;20051;-67
2022/09/15 08:12:16;;;;;;;11.55;2.15;;;;;;;16.10;52.74;99751.53;4953346;28;20051;-68
2022/09/15 08:14:43;;;;;;;9.02;2.45;;;;;;;16.33;52.48;99741.94;4954446;28;20051;-67
2022/09/15 08:17:10;;;;;;;11.15;2.65;;;;;;;16.30;52.39;99742.41;4954407;28;20450;-67
2022/09/15 08:19:37;;;;;;;18.95;2.63;;;;;;;16.16;52.55;99737.13;4954072;28;20055;-67
2022/09/15 08:22:04;;;;;;;11.18;2.83;;;;;;;16.33;51.95;99737.38;4953506;28;20051;-66
2022/09/15 08:24:30;;;;;;;9.85;2.35;;;;;;;16.58;51.34;99739.28;4953892;28;20460;-66
2022/09/15 08:26:57;;;;;;;10.27;2.38;;;;;;;16.42;51.91;99740.63;4954133;28;20061;-66
2022/09/15 08:29:24;;;;;;;13.40;2.25;;;;;;;16.88;50.47;99747.47;4953374;28;20049;-66
2022/09/15 08:31:50;;;;;;;13.10;2.28;;;;;;;16.81;50.45;99749.44;4951758;28;20446;-67
2022/09/15 08:34:16;;;;;;;7.97;2.65;;;;;;;16.94;50.26;99743.88;4960592;28;20050;-70
2022/09/15 08:36:43;;;;;;;7.65;2.05;;;;;;;16.59;51.29;99741.75;4953854;28;20055;-66
2022/09/15 08:39:10;;;;;;;14.75;2.33;;;;;;;16.70;50.58;99751.00;4953775;28;20587;-67
2022/09/15 08:41:43;;;;;;;17.70;2.30;;;;;;;16.45;51.35;99751.00;4951693;28;20043;-66
2022/09/15 08:44:28;;;;;;;8.93;2.50;;;;;;;16.53;51.53;99753.47;4953319;28;20047;-66
2022/09/15 08:47:08;;;;;;;10.80;2.08;;;;;;;16.44;51.61;99752.06;4953213;28;20506;-66
2022/09/15 08:49:54;;;;;;;13.75;2.35;;;;;;;16.40;51.61;99764.38;4953683;28;20502;-66
2022/09/15 08:52:29;;;;;;;16.88;2.47;;;;;;;16.62;50.84;99756.72;4953340;28;20043;-69
2022/09/15 08:54:58;;;;;;;9.90;3.05;;;;;;;16.53;51.40;99744.50;4969966;28;20049;-69
2022/09/15 08:57:25;;;;;;;12.18;2.40;;;;;;;16.54;51.20;99738.03;4972029;28;20133;-69
2022/09/15 08:59:53;;;;;;;12.43;2.03;;;;;;;16.29;51.34;99741.56;4970910;28;20483;-70
2022/09/15 09:02:57;;;;;;;8.07;2.10;;;;;;;16.33;51.23;99745.50;4980517;28;20141;-69
2022/09/15 09:05:51;;;;;;;11.60;2.42;;;;;;;16.48;50.37;99752.47;4963510;28;20443;-70
2022/09/15 09:08:27;;;;;;;10.88;2.05;;;;;;;16.03;51.25;99752.63;4990300;28;20052;-69
2022/09/15 09:11:00;;;;;;;8.20;2.30;;;;;;;16.28;50.48;99749.91;4985748;28;20200;-70
2022/09/15 09:13:32;;;;;;;19.67;2.92;;;;;;;16.42;50.45;99751.44;4989137;28;20042;-69
2022/09/15 09:16:19;;;;;;;14.82;2.60;;;;;;;15.97;52.19;99748.91;4989446;28;20129;-68
2022/09/15 09:19:09;;;;;;;10.85;2.20;;;;;;;15.84;52.36;99740.88;4990874;28;20052;-69
2022/09/15 09:21:43;;;;;;;8.40;1.92;;;;;;;16.11;51.33;99749.63;4972217;28;20065;-69
2022/09/15 09:24:24;;;;;;;10.65;2.33;;;;;;;16.38;50.94;99748.38;4989760;28;20520;-69
2022/09/15 09:26:54;;;;;;;11.82;4.88;;;;;;;16.19;51.64;99750.22;4989802;28;20042;-69
2022/09/15 09:29:35;;;;;;;11.38;3.97;;;;;;;16.63;51.01;99752.94;4980521;28;20050;-69
2022/09/15 09:32:02;;;;;;;6.75;2.20;;;;;;;16.05;52.00;99742.41;4989652;28;20049;-69
2022/09/15 09:35:28;;;;;;;15.48;4.43;;;;;;;16.48;51.32;99745.16;4989851;28;20049;-69
2022/09/15 09:37:55;;;;;;;11.25;2.20;;;;;;;16.90;50.00;99739.97;4929693;29;20054;-69
2022/09/15 09:40:22;;;;;;;13.02;1.80;;;;;;;17.09;49.60;99738.91;4930662;29;20051;-70
2022/09/15 09:42:49;;;;;;;7.10;1.70;;;;;;;17.31;48.48;99744.66;4929160;29;20111;-69
2022/09/15 09:45:18;;;;;;;12.15;2.08;;;;;;;17.72;47.65;99736.84;4930053;29;20054;-69
2022/09/15 09:47:47;;;;;;;8.52;1.90;;;;;;;17.47;47.13;99743.22;4929928;29;20055;-69
2022/09/15 09:50:42;;;;;;;11.77;2.30;;;;;;;17.32;48.33;99740.91;4930929;29;20055;-70
2022/09/15 09:53:31;;;;;;;8.15;2.10;;;;;;;16.95;48.24;99745.50;4930708;29;20055;-69
2022/09/15 09:56:25;;;;;;;8.52;1.67;;;;;;;17.08;47.20;99745.38;4930431;29;20052;-69
2022/09/15 09:58:53;;;;;;;5.90;1.75;;;;;;;17.90;45.98;99747.63;4931176;29;20487;-67
2022/09/15 10:01:24;;;;;;;9.23;1.77;;;;;;;18.91;43.56;99755.72;4931437;29;20055;-67
2022/09/15 10:04:16;;;;;;;12.13;1.95;;;;;;;19.45;41.96;99745.44;4931287;29;20058;-67
2022/09/15 10:06:43;;;;;;;9.98;1.55;;;;;;;19.84;41.40;99751.91;4931002;29;20078;-67
2022/09/15 10:09:18;;;;;;;10.32;1.63;;;;;;;19.40;41.83;99745.34;4980340;28;20422;-69
2022/09/15 10:11:51;;;;;;;16.77;2.30;;;;;;;19.77;41.12;99748.53;4991484;28;20523;-68
2022/09/15 10:14:19;;;;;;;10.63;1.92;;;;;;;20.44;39.80;99747.75;4991204;28;20461;-77
2022/09/15 10:17:04;;;;;;;4.88;1.80;;;;;;;20.18;40.15;99738.34;4992278;28;20054;-77
2022/09/15 10:19:35;;;;;;;10.50;2.38;;;;;;;19.08;42.34;99743.09;4990552;28;20528;-77
2022/09/15 10:22:03;;;;;;;8.70;1.75;;;;;;;19.38;41.56;99744.75;4991619;28;20050;-75
2022/09/15 10:24:37;;;;;;;11.55;1.60;;;;;;;19.58;40.51;99749.75;4974007;28;20413;-77
2022/09/15 10:27:17;;;;;;;16.50;1.95;;;;;;;20.67;38.71;99735.84;4988488;28;20057;-76
2022/09/15 10:29:43;;;;;;;5.00;1.38;;;;;;;20.91;37.46;99737.25;4995218;28;20065;-77
2022/09/15 10:32:22;;;;;;;6.93;1.20;;;;;;;20.40;37.17;99749.34;4994837;28;20066;-76
2022/09/15 10:35:01;;;;;;;5.38;1.17;;;;;;;20.94;36.77;99754.16;4990841;28;20046;-77
2022/09/15 10:37:52;;;;;;;5.63;1.10;;;;;;;21.56;35.31;99742.94;4995568;28;20049;-77
2022/09/15 10:40:19;;;;;;;14.07;1.60;;;;;;;21.89;34.63;99749.31;4995044;28;20398;-77
2022/09/15 10:42:50;;;;;;;10.23;1.67;;;;;;;21.98;34.81;99745.00;4994539;28;20478;-77
2022/09/15 10:45:27;;;;;;;10.85;1.67;;;;;;;21.99;34.55;99744.78;4995216;28;20482;-77
2022/09/15 10:48:16;;;;;;;11.98;1.65;;;;;;;22.99;32.33;99738.66;4994385;28;20093;-76
2022/09/15 10:50:54;;;;;;;6.15;1.23;;;;;;;22.76;31.97;99732.50;4994067;28;20052;-77
2022/09/15 10:53:55;;;;;;;9.18;1.48;;;;;;;23.52;30.05;99738.56;5009445;28;20043;-74
2022/09/15 10:56:45;;;;;;;9.15;1.60;;;;;;;22.49;31.41;99729.88;5010226;28;20482;-74
2022/09/15 10:59:40;;;;;;;5.07;1.20;;;;;;;21.34;32.83;99732.06;5010524;28;20058;-74
2022/09/15 11:02:52;;;;;;;11.57;2.13;;;;;;;20.46;33.74;99725.72;5000415;28;20149;-74
2022/09/15 11:05:40;;;;;;;7.85;2.00;;;;;;;19.65;35.15;99726.78;4999410;28;20414;-74
2022/09/15 11:08:34;;;;;;;4.20;1.00;;;;;;;19.75;34.88;99737.06;5001658;28;20457;-74
2022/09/15 11:11:28;;;;;;;22.38;2.38;;;;;;;19.40;36.31;99735.28;5002327;28;20050;-73
2022/09/15 11:14:29;;;;;;;10.45;1.52;;;;;;;19.33;36.51;99731.88;5004743;28;20045;-72
2022/09/15 11:17:01;;;;;;;15.52;1.20;;;;;;;18.80;38.09;99735.66;5003674;28;20129;-73
2022/09/15 11:19:46;;;;;;;8.30;2.05;;;;;;;19.05;38.39;99737.31;5009107;28;20114;-73
2022/09/15 11:22:18;;;;;;;8.05;1.20;;;;;;;18.76;38.35;99729.06;5009940;28;20054;-73
2022/09/15 11:24:58;;;;;;;11.18;1.60;;;;;;;19.67;36.88;99738.28;5009930;28;20060;-73
2022/09/15 11:27:41;;;;;;;7.07;1.20;;;;;;;20.27;35.59;99734.09;5010428;28;20043;-72
2022/09/15 11:30:20;;;;;;;5.22;1.40;;;;;;;20.36;35.25;99729.91;5011057;28;20113;-74
2022/09/15 11:33:02;;;;;;;4.93;1.30;;;;;;;20.22;35.27;99725.06;5011711;28;20056;-74
2022/09/15 11:35:49;;;;;;;3.88;1.20;;;;;;;20.36;36.79;99726.38;4988322;28;20065;-74
2022/09/15 11:38:33;;;;;;;5.07;1.35;;;;;;;20.05;37.80;99727.78;4989590;28;20056;-72
2022/09/15 11:41:40;;;;;;;9.82;1.63;;;;;;;20.72;36.65;99722.28;4993110;28;20433;-72
2022/09/15 11:44:13;;;;;;;13.13;1.40;;;;;;;20.72;36.29;99716.81;4976402;28;20069;-72
2022/09/15 11:47:01;;;;;;;7.50;1.33;;;;;;;20.56;35.87;99721.25;4992696;28;20046;-72
2022/09/15 11:49:35;;;;;;;15.20;1.92;;;;;;;21.26;35.73;99717.00;4992648;28;20108;-71
2022/09/15 11:52:06;;;;;;;4.18;1.50;;;;;;;20.71;35.84;99722.53;4991356;28;20046;-67
2022/09/15 11:55:18;;;;;;;10.40;1.52;;;;;;;20.84;35.86;99723.00;4990898;28;20070;-71
2022/09/15 11:58:02;;;;;;;7.45;1.35;;;;;;;20.94;35.97;99729.63;4964999;28;20383;-71
2022/09/15 12:00:30;;;;;;;6.25;1.90;;;;;;;20.44;36.72;99729.50;4991474;28;20398;-70
2022/09/15 12:03:12;;;;;;;8.15;1.83;;;;;;;20.20;36.97;99738.91;4992611;28;20057;-71
2022/09/15 12:05:47;;;;;;;9.00;1.27;;;;;;;19.72;38.73;99732.09;4991984;28;20067;-71
2022/09/15 12:08:20;;;;;;;11.88;1.60;;;;;;;20.42;37.00;99736.31;4992329;28;20046;-71
2022/09/15 12:10:55;;;;;;;9.25;1.60;;;;;;;20.50;37.14;99726.88;4991717;28;20460;-71
2022/09/15 12:13:23;;;;;;;5.45;1.70;;;;;;;20.18;36.87;99727.44;4990639;28;20482;-71
2022/09/15 12:15:52;;;;;;;9.13;1.92;;;;;;;19.61;38.33;99733.78;4991175;28;20050;-71
2022/09/15 12:18:26;;;;;;;10.18;1.73;;;;;;;19.30;38.70;99735.09;4992367;28;20057;-72
2022/09/15 12:21:15;;;;;;;6.85;1.13;;;;;;;19.19;39.22;99725.91;4990553;28;20070;-70
2022/09/15 12:23:53;;;;;;;11.60;1.75;;;;;;;19.11;39.24;99739.88;4990930;28;20050;-70
2022/09/15 12:26:25;;;;;;;11.50;1.40;;;;;;;18.92;40.20;99732.91;4990194;28;20498;-71
2022/09/15 12:28:56;;;;;;;15.07;1.67;;;;;;;18.63;40.39;99734.75;4991127;28;20045;-71
2022/09/15 12:31:34;;;;;;;6.05;1.38;;;;;;;18.36;40.77;99729.78;4991867;28;20057;-71
2022/09/15 12:34:21;;;;;;;11.02;1.40;;;;;;;17.69;40.42;99738.13;4990666;28;20046;-69
2022/09/15 12:36:50;;;;;;;16.92;1.63;;;;;;;18.11;40.07;99745.44;4990842;28;20046;-68
2022/09/15 12:39:25;;;;;;;7.63;2.08;;;;;;;18.09;39.75;99743.75;4990859;28;20137;-68
2022/09/15 12:42:13;;;;;;;5.20;1.70;;;;;;;18.37;39.14;99734.13;4992433;28;20050;-68
2022/09/15 12:44:50;;;;;;;9.57;1.38;;;;;;;18.70;38.81;99730.81;4991133;28;20064;-68
2022/09/15 12:47:17;;;;;;;8.25;1.30;;;;;;;19.00;38.58;99722.53;4984666;28;20061;-68
2022/09/15 12:49:47;;;;;;;10.88;1.40;;;;;;;18.65;39.67;99725.25;4991034;28;20057;-72
2022/09/15 12:52:16;;;;;;;7.93;1.55;;;;;;;18.73;40.00;99724.09;4990630;28;20061;-66
2022/09/15 12:54:50;;;;;;;15.25;1.40;;;;;;;18.50;41.37;99735.81;4989811;28;20038;-67
2022/09/15 12:57:35;;;;;;;12.77;1.98;;;;;;;18.61;40.75;99728.72;4991353;28;20056;-65
2022/09/15 13:00:19;;;;;;;9.75;1.95;;;;;;;18.65;40.33;99727.16;4990680;28;20336;-66
2022/09/15 13:02:48;;;;;;;9.57;2.13;;;;;;;18.79;40.65;99734.00;4975887;28;20047;-67
2022/09/15 13:05:40;;;;;;;9.15;3.80;;;;;;;19.07;39.70;99729.72;4969752;28;20415;-66
2022/09/15 13:08:29;;;;;;;19.67;9.20;;;;;;;19.15;39.04;99732.06;4970543;28;20073;-67
2022/09/15 13:11:03;;;;;;;10.60;2.78;;;;;;;19.04;39.01;99725.59;4961280;28;20054;-65
2022/09/15 13:13:38;;;;;;;7.63;1.50;;;;;;;19.10;38.66;99723.81;4970217;28;20438;-65
2022/09/15 13:16:19;;;;;;;8.13;1.55;;;;;;;18.71;39.83;99721.59;4952722;28;20055;-66
2022/09/15 13:18:53;;;;;;;9.27;1.50;;;;;;;19.10;39.61;99726.53;4972176;28;20154;-67
2022/09/15 13:21:21;;;;;;;9.70;1.45;;;;;;;18.89;40.24;99725.25;4971839;28;20062;-67
2022/09/15 13:23:51;;;;;;;6.25;1.50;;;;;;;18.76;38.50;99723.63;4961484;28;20047;-69
2022/09/15 13:26:24;;;;;;;8.30;1.08;;;;;;;18.52;38.73;99718.22;4970104;28;20051;-68
2022/09/15 13:28:52;;;;;;;7.60;1.40;;;;;;;18.21;39.52;99721.28;4971102;28;20054;-69
2022/09/15 13:31:40;;;;;;;16.65;1.58;;;;;;;17.90;40.01;99723.22;4972119;28;20053;-69
2022/09/15 13:34:06;;;;;;;14.45;1.83;;;;;;;17.98;40.14;99722.03;4971450;28;20537;-69
2022/09/15 13:37:09;;;;;;;11.20;1.52;;;;;;;18.18;39.92;99717.13;4970450;28;20134;-69
2022/09/15 13:40:39;;;;;;;8.82;1.77;;;;;;;18.23;40.17;99705.56;4976318;28;20043;-75
2022/09/15 13:43:24;;;;;;;10.68;2.03;;;;;;;18.46;39.67;99710.19;4976727;28;20054;-75
2022/09/15 13:46:03;;;;;;;8.40;1.67;;;;;;;18.13;40.89;99716.97;4976902;28;20057;-75
2022/09/15 13:48:54;;;;;;;7.22;2.15;;;;;;;18.06;40.90;99714.41;4977636;28;20109;-75
2022/09/15 13:51:26;;;;;;;12.98;1.80;;;;;;;17.91;40.61;99711.28;4974875;28;20101;-75
2022/09/15 13:54:05;;;;;;;4.78;1.20;;;;;;;17.84;40.51;99707.84;4975578;28;20479;-75
2022/09/15 13:56:36;;;;;;;11.77;1.40;;;;;;;18.31;39.93;99711.50;4978762;28;20054;-71
2022/09/15 13:59:06;;;;;;;11.93;1.83;;;;;;;18.17;39.62;99701.06;4978030;28;20051;-74
2022/09/15 14:01:41;;;;;;;8.25;2.10;;;;;;;18.30;39.75;99698.94;4981289;28;20043;-74
2022/09/15 14:04:23;;;;;;;10.10;1.70;;;;;;;18.00;40.25;99693.63;4999826;28;20042;-73
2022/09/15 14:06:51;;;;;;;;;;;;;;;17.95;40.16;99695.38;5000177;28;20046;-74
2022/09/15 14:09:28;;;;;;;6.80;1.35;;;;;;;17.96;40.21;99695.16;4998797;28;20000;-75
2022/09/15 14:11:58;;;;;;;8.73;1.38;;;;;;;17.83;40.28;99681.78;4988649;28;20053;-74
2022/09/15 14:14:33;;;;;;;16.95;1.98;;;;;;;17.93;39.87;99690.19;4995479;28;20046;-73
2022/09/15 14:17:00;;;;;;;24.58;1.38;;;;;;;17.66;40.63;99686.25;4996659;28;20050;-74
2022/09/15 14:19:32;;;;;;;11.00;1.23;;;;;;;17.77;40.08;99685.44;4995942;28;20050;-76
2022/09/15 14:22:19;;;;;;;4.68;1.35;;;;;;;17.74;40.00;99685.91;4995278;28;20062;-76
2022/09/15 14:24:46;;;;;;;9.35;1.60;;;;;;;17.91;39.93;99692.28;4994573;28;20042;-76
2022/09/15 14:27:36;;;;;;;6.68;1.60;;;;;;;18.05;39.58;99691.00;4994063;28;20421;-75
2022/09/15 14:30:06;;;;;;;8.10;2.17;;;;;;;17.99;40.14;99702.78;4993426;28;20109;-74
2022/09/15 14:32:37;;;;;;;14.70;1.73;;;;;;;17.72;40.42;99694.28;4994619;28;20046;-74
2022/09/15 14:35:08;;;;;;;6.32;1.52;;;;;;;17.70;40.63;99704.53;4994191;28;20053;-75
2022/09/15 14:37:35;;;;;;;10.68;1.27;;;;;;;17.56;40.90;99690.31;4993252;28;20053;-76
2022/09/15 14:40:17;;;;;;;8.65;1.42;;;;;;;17.09;42.27;99698.25;4995308;28;20069;-74
2022/09/15 14:42:44;;;;;;;13.13;1.50;;;;;;;16.97;41.75;99691.94;4998127;28;20042;-74
2022/09/15 14:45:14;;;;;;;13.93;1.70;;;;;;;17.22;41.24;99699.94;4998784;28;20446;-75
2022/09/15 14:48:05;;;;;;;10.13;1.05;;;;;;;17.30;41.01;99701.50;4998317;28;20049;-74
2022/09/15 14:50:33;;;;;;;7.85;1.42;;;;;;;17.27;41.06;99699.28;4999968;28;20050;-75
2022/09/15 14:53:08;;;;;;;10.10;1.70;;;;;;;17.39;40.96;99689.31;4998085;28;20085;-74
2022/09/15 14:55:56;;;;;;;5.72;1.75;;;;;;;17.25;41.58;99679.69;4998615;28;20395;-74
2022/09/15 14:58:26;;;;;;;9.77;1.50;;;;;;;17.38;41.04;99690.41;4997857;28;20046;-75
2022/09/15 15:01:05;;;;;;;4.60;1.63;;;;;;;17.16;40.58;99689.19;4998007;28;20047;-74
2022/09/15 15:03:36;;;;;;;7.00;1.17;;;;;;;17.57;39.34;99699.28;4998728;28;20133;-75
2022/09/15 15:06:38;;;;;;;17.63;1.63;;;;;;;17.31;38.56;99695.88;4994377;28;20053;-74
2022/09/15 15:09:13;;;;;;;13.50;1.85;;;;;;;16.77;40.01;99689.47;4995202;28;20060;-74
2022/09/15 15:11:40;;;;;;;37.33;2.22;;;;;;;16.94;39.26;99700.53;4996997;28;20038;-71
2022/09/15 15:14:08;;;;;;;6.35;1.38;;;;;;;17.29;38.66;99708.81;4997562;28;20108;-75
2022/09/15 15:16:36;;;;;;;6.82;1.45;;;;;;;17.16;38.91;99702.75;5000070;28;20046;-74
2022/09/15 15:19:03;;;;;;;3.83;1.00;;;;;;;17.17;38.55;99701.72;4997070;28;20057;-75
2022/09/15 15:21:37;;;;;;;5.82;1.08;;;;;;;17.28;38.38;99712.59;4998789;28;20481;-75
2022/09/15 15:24:21;;;;;;;7.78;1.00;;;;;;;16.94;38.64;99703.22;4998004;28;20046;-75
2022/09/15 15:26:49;;;;;;;11.18;2.00;;;;;;;16.94;38.34;99705.13;4998201;28;20057;-74
2022/09/15 15:29:41;;;;;;;6.85;1.73;;;;;;;17.03;38.43;99706.47;4999564;28;20050;-73
2022/09/15 15:32:28;;;;;;;10.15;3.15;;;;;;;17.08;38.67;99701.19;4999407;28;20130;-74
2022/09/15 15:35:00;;;;;;;3.92;1.27;;;;;;;16.85;39.04;99704.56;4989069;28;20414;-74
2022/09/15 15:37:29;;;;;;;5.50;1.50;;;;;;;17.03;38.90;99709.19;4998339;28;20055;-74
2022/09/15 15:39:59;;;;;;;3.47;0.85;;;;;;;16.79;39.42;99708.22;4998773;28;20050;-74
2022/09/15 15:42:27;;;;;;;4.50;1.08;;;;;;;16.74;39.90;99729.72;4998582;28;20129;-75
2022/09/15 15:45:20;;;;;;;4.32;0.75;;;;;;;16.77;40.30;99723.84;4999056;28;20046;-75
2022/09/15 15:47:47;;;;;;;2.08;0.80;;;;;;;16.62;41.58;99735.88;4992968;28;20046;-75
2022/09/15 15:50:19;;;;;;;5.63;1.45;;;;;;;16.47;42.56;99738.09;4998531;28;20054;-74
2022/09/15 15:52:48;;;;;;;7.38;1.00;;;;;;;16.19;44.05;99736.69;4998634;28;20425;-74